Time;durP1;ratioP1;P1;durP2;ratioP2;P2;SDS_P1;SDS_P2;PMS_P1;PMS_P2;Temp;Humidity;BMP_temperature;BMP_pressure;BME280_temperature;BME280_humidity;BME280_pressure;Samples;Min_cycle;Max_cycle;Signal;HPM_P1;HPM_P2
2021/05/30 00:02:21;;;;;;;9.43;4.25;;;11.00;99.90;;;;;;4971061;28;20122;-68
2021/05/30 00:04:47;;;;;;;9.13;4.57;;;11.00;99.90;;;;;;4971052;28;20051;-68
2021/05/30 00:07:13;;;;;;;10.75;4.50;;;11.00;99.90;;;;;;4966809;28;20042;-69
2021/05/30 00:09:38;;;;;;;13.48;4.53;;;11.00;99.90;;;;;;4967488;28;20082;-68
2021/05/30 00:12:09;;;;;;;15.02;5.28;;;11.10;99.90;;;;;;4966971;28;20054;-69
2021/05/30 00:14:35;;;;;;;10.88;4.75;;;11.00;99.90;;;;;;4966830;28;20041;-69
2021/05/30 00:17:00;;;;;;;9.88;5.13;;;11.00;99.90;;;;;;4968216;28;20422;-69
2021/05/30 00:19:26;;;;;;;11.55;5.20;;;11.00;99.90;;;;;;4968136;28;20039;-69
2021/05/30 00:21:52;;;;;;;12.85;4.78;;;11.00;99.90;;;;;;4968006;28;20039;-70
2021/05/30 00:24:18;;;;;;;10.85;5.25;;;10.90;99.90;;;;;;4969046;28;20026;-68
2021/05/30 00:26:43;;;;;;;9.98;5.10;;;10.80;99.90;;;;;;4982793;28;20495;-69
2021/05/30 00:29:09;;;;;;;14.07;4.97;;;10.70;99.90;;;;;;4967789;28;20031;-69
2021/05/30 00:31:35;;;;;;;15.20;5.20;;;10.70;99.90;;;;;;4968451;28;20120;-68
2021/05/30 00:34:00;;;;;;;10.55;4.90;;;10.60;99.90;;;;;;4966500;28;20031;-68
2021/05/30 00:36:26;;;;;;;11.23;5.72;;;10.60;99.90;;;;;;4967698;28;20058;-69
2021/05/30 00:38:51;;;;;;;10.13;4.57;;;10.50;99.90;;;;;;4963539;28;20062;-69
2021/05/30 00:41:17;;;;;;;12.52;6.00;;;10.40;99.90;;;;;;4969541;28;20038;-69
2021/05/30 00:43:52;;;;;;;11.15;5.65;;;10.30;99.90;;;;;;4968881;28;20130;-69
2021/05/30 00:46:19;;;;;;;13.25;5.38;;;10.20;99.90;;;;;;4966731;28;20035;-69
2021/05/30 00:48:45;;;;;;;12.57;4.53;;;10.20;99.90;;;;;;4969058;28;20039;-68
2021/05/30 00:51:11;;;;;;;9.38;4.20;;;10.10;99.90;;;;;;4971336;28;20038;-69
2021/05/30 00:53:37;;;;;;;11.65;4.45;;;10.10;99.90;;;;;;4970301;28;20537;-70
2021/05/30 00:56:05;;;;;;;13.10;4.32;;;10.10;99.90;;;;;;4985716;28;20478;-69
2021/05/30 00:58:31;;;;;;;10.82;3.95;;;10.10;99.90;;;;;;4967170;28;20367;-68
2021/05/30 01:00:57;;;;;;;12.85;3.85;;;10.00;99.90;;;;;;4971070;28;20027;-68
2021/05/30 01:03:22;;;;;;;11.77;5.03;;;10.00;99.90;;;;;;4970986;28;20027;-69
2021/05/30 01:05:48;;;;;;;11.18;4.65;;;10.00;99.90;;;;;;4969527;28;20039;-70
2021/05/30 01:08:18;;;;;;;17.27;4.90;;;9.90;99.90;;;;;;4969870;28;20039;-69
2021/05/30 01:10:45;;;;;;;9.75;4.03;;;9.90;99.90;;;;;;4971289;28;20053;-68
2021/05/30 01:13:12;;;;;;;11.60;3.83;;;9.90;99.90;;;;;;4986261;28;20027;-68
2021/05/30 01:15:39;;;;;;;8.65;3.58;;;9.90;99.90;;;;;;4969919;28;20035;-68
2021/05/30 01:18:06;;;;;;;11.63;4.57;;;9.80;99.90;;;;;;4984976;28;20031;-70
2021/05/30 01:20:31;;;;;;;9.15;3.88;;;9.80;99.90;;;;;;4971018;28;20062;-69
2021/05/30 01:22:57;;;;;;;19.55;4.47;;;9.80;99.90;;;;;;4972112;28;20061;-68
2021/05/30 01:25:25;;;;;;;10.93;3.72;;;9.80;99.90;;;;;;4985909;28;20034;-69
2021/05/30 01:27:51;;;;;;;11.07;3.80;;;9.80;99.90;;;;;;4970260;28;20551;-68
2021/05/30 01:30:19;;;;;;;10.27;4.35;;;9.80;99.90;;;;;;4970823;28;20038;-68
2021/05/30 01:32:46;;;;;;;8.32;4.40;;;9.70;99.90;;;;;;4970805;28;20046;-69
2021/05/30 01:35:12;;;;;;;21.50;4.60;;;9.80;99.90;;;;;;4970457;28;20041;-69
2021/05/30 01:37:39;;;;;;;9.10;3.38;;;9.70;99.90;;;;;;4964399;28;20436;-68
2021/05/30 01:40:05;;;;;;;9.73;4.10;;;9.70;99.90;;;;;;4970037;28;20038;-68
2021/05/30 01:42:30;;;;;;;9.73;3.72;;;9.80;99.90;;;;;;4970631;28;20047;-68
2021/05/30 01:44:56;;;;;;;11.48;4.72;;;9.80;99.90;;;;;;4985058;28;20042;-69
2021/05/30 01:47:22;;;;;;;9.32;3.92;;;9.80;99.90;;;;;;4968594;28;20039;-69
2021/05/30 01:49:47;;;;;;;14.73;3.65;;;9.80;99.90;;;;;;4969635;28;20062;-68
2021/05/30 01:52:13;;;;;;;8.27;3.22;;;9.90;99.90;;;;;;4970317;28;20030;-68
2021/05/30 01:54:45;;;;;;;9.65;3.78;;;10.00;99.90;;;;;;4966580;28;20035;-68
2021/05/30 01:57:11;;;;;;;9.80;4.07;;;10.00;99.90;;;;;;4970198;28;20038;-68
2021/05/30 01:59:38;;;;;;;9.10;3.58;;;10.00;99.90;;;;;;4972359;28;20050;-69
2021/05/30 02:02:04;;;;;;;12.48;3.28;;;10.00;99.90;;;;;;4983583;28;20031;-69
2021/05/30 02:04:34;;;;;;;10.13;3.78;;;10.10;99.90;;;;;;4973463;28;20047;-68
2021/05/30 02:07:00;;;;;;;10.90;4.00;;;10.10;99.90;;;;;;4966078;28;20034;-68
2021/05/30 02:09:27;;;;;;;8.90;4.55;;;10.10;99.90;;;;;;4969668;28;20045;-69
2021/05/30 02:11:53;;;;;;;10.98;3.67;;;10.10;99.90;;;;;;4969910;28;20353;-68
2021/05/30 02:14:19;;;;;;;7.95;3.63;;;10.10;99.90;;;;;;4968498;28;20086;-68
2021/05/30 02:16:46;;;;;;;10.77;3.50;;;10.20;99.90;;;;;;4970080;28;20039;-69
2021/05/30 02:19:11;;;;;;;11.30;4.10;;;10.20;99.90;;;;;;4969977;28;20062;-68
2021/05/30 02:21:45;;;;;;;14.10;3.30;;;10.10;99.90;;;;;;4969644;28;20144;-68
2021/05/30 02:24:12;;;;;;;7.80;3.50;;;10.00;99.90;;;;;;4969141;28;20035;-69
2021/05/30 02:26:38;;;;;;;13.13;4.22;;;10.00;99.90;;;;;;4969779;28;20042;-69
2021/05/30 02:29:05;;;;;;;9.05;3.60;;;10.00;99.90;;;;;;4969143;28;20758;-69
2021/05/30 02:31:31;;;;;;;9.48;3.38;;;10.00;99.90;;;;;;4970207;28;20090;-69
2021/05/30 02:33:57;;;;;;;7.75;3.38;;;10.00;99.90;;;;;;4968993;28;20030;-69
2021/05/30 02:36:24;;;;;;;12.88;3.53;;;10.00;99.90;;;;;;4966226;28;20957;-69
2021/05/30 02:38:49;;;;;;;9.48;3.47;;;10.00;99.90;;;;;;4967924;28;20055;-69
2021/05/30 02:41:15;;;;;;;8.15;3.05;;;10.10;99.90;;;;;;4978240;28;20043;-69
2021/05/30 02:43:41;;;;;;;7.57;3.50;;;10.10;99.90;;;;;;4967167;28;20038;-69
2021/05/30 02:46:07;;;;;;;8.75;3.30;;;10.10;99.90;;;;;;4964935;28;20126;-69
2021/05/30 02:48:33;;;;;;;6.22;3.33;;;10.10;99.90;;;;;;4972633;28;20066;-69
2021/05/30 02:50:59;;;;;;;8.10;3.50;;;10.10;99.90;;;;;;4965264;28;20071;-69
2021/05/30 02:53:28;;;;;;;8.38;3.33;;;10.10;99.90;;;;;;4959898;28;20030;-69
2021/05/30 02:55:56;;;;;;;16.48;3.65;;;10.10;99.90;;;;;;4969049;28;20034;-69
2021/05/30 02:58:21;;;;;;;10.77;3.42;;;10.10;99.90;;;;;;4964372;28;20031;-69
2021/05/30 03:00:47;;;;;;;9.10;3.30;;;10.10;99.90;;;;;;4968908;28;20027;-69
2021/05/30 03:03:13;;;;;;;10.30;4.03;;;10.10;99.90;;;;;;4968931;28;20046;-69
2021/05/30 03:05:38;;;;;;;16.95;3.60;;;10.20;99.90;;;;;;4968530;28;20041;-69
2021/05/30 03:08:04;;;;;;;14.65;3.60;;;10.20;99.90;;;;;;4968691;28;20022;-69
2021/05/30 03:10:30;;;;;;;6.30;3.67;;;10.10;99.90;;;;;;4966994;28;20765;-69
2021/05/30 03:12:56;;;;;;;9.27;4.10;;;10.10;99.90;;;;;;4968803;28;20062;-69
2021/05/30 03:15:21;;;;;;;13.18;4.57;;;10.20;99.90;;;;;;4968518;28;20030;-68
2021/05/30 03:17:47;;;;;;;7.97;3.55;;;10.20;99.90;;;;;;4968025;28;20097;-69
2021/05/30 03:20:13;;;;;;;7.82;3.83;;;10.20;99.90;;;;;;4968706;28;20082;-68
2021/05/30 03:22:39;;;;;;;11.65;3.78;;;10.30;99.90;;;;;;4968322;28;20057;-69
2021/05/30 03:25:06;;;;;;;11.27;3.60;;;10.30;99.90;;;;;;4968080;28;20036;-69
2021/05/30 03:27:31;;;;;;;11.40;3.63;;;10.30;99.90;;;;;;4966992;28;20399;-70
2021/05/30 03:29:57;;;;;;;11.30;3.65;;;10.20;99.90;;;;;;4968078;28;20125;-69
2021/05/30 03:32:23;;;;;;;13.48;4.40;;;10.20;99.90;;;;;;4968789;28;20065;-69
2021/05/30 03:34:49;;;;;;;15.07;4.20;;;10.00;99.90;;;;;;4967802;28;20043;-69
2021/05/30 03:37:15;;;;;;;9.75;3.78;;;10.00;99.90;;;;;;4980691;28;20027;-69
2021/05/30 03:39:43;;;;;;;7.18;3.47;;;9.90;99.90;;;;;;4967060;28;20054;-69
2021/05/30 03:42:19;;;;;;;10.05;3.65;;;9.80;99.90;;;;;;4967271;28;20031;-68
2021/05/30 03:44:44;;;;;;;10.98;4.03;;;9.70;99.90;;;;;;4967925;28;20042;-69
2021/05/30 03:47:12;;;;;;;10.52;3.78;;;9.70;99.90;;;;;;4967568;28;20089;-68
2021/05/30 03:49:39;;;;;;;9.25;3.80;;;9.70;99.90;;;;;;4964713;28;20557;-69
2021/05/30 03:52:05;;;;;;;7.18;3.33;;;9.80;99.90;;;;;;4968563;28;20093;-69
2021/05/30 03:54:31;;;;;;;10.80;4.85;;;9.90;99.90;;;;;;4968609;28;20035;-69
2021/05/30 03:56:56;;;;;;;14.52;3.88;;;9.90;99.90;;;;;;4966382;28;20046;-69
2021/05/30 03:59:22;;;;;;;8.90;3.38;;;10.00;99.90;;;;;;4966696;28;20558;-69
2021/05/30 04:01:47;;;;;;;9.50;4.13;;;10.00;99.90;;;;;;4967469;28;20523;-69
2021/05/30 04:04:13;;;;;;;9.98;3.88;;;10.10;99.90;;;;;;4982636;28;20042;-69
2021/05/30 04:06:39;;;;;;;7.78;4.07;;;10.10;99.90;;;;;;4967669;28;20043;-69
2021/05/30 04:09:04;;;;;;;8.63;3.70;;;10.10;99.90;;;;;;4967742;28;20134;-69
2021/05/30 04:11:30;;;;;;;8.55;3.75;;;10.20;99.90;;;;;;4967895;28;20039;-68
2021/05/30 04:13:55;;;;;;;11.65;3.30;;;10.20;99.90;;;;;;4967951;28;20027;-69
2021/05/30 04:16:21;;;;;;;8.10;3.60;;;10.30;99.90;;;;;;4966927;28;20027;-69
2021/05/30 04:18:47;;;;;;;9.60;3.95;;;10.30;99.90;;;;;;4967386;28;20038;-69
2021/05/30 04:21:12;;;;;;;17.02;4.15;;;10.30;99.90;;;;;;4968451;28;20031;-68
2021/05/30 04:23:38;;;;;;;12.38;3.63;;;10.40;99.90;;;;;;4984786;28;20045;-70
2021/05/30 04:26:03;;;;;;;7.80;3.60;;;10.40;99.90;;;;;;4972491;28;20037;-69
2021/05/30 04:28:29;;;;;;;9.40;3.53;;;10.50;99.90;;;;;;4972543;28;20050;-69
2021/05/30 04:30:55;;;;;;;11.15;4.00;;;10.50;99.90;;;;;;4972670;28;20510;-69
2021/05/30 04:33:21;;;;;;;8.85;3.67;;;10.50;99.90;;;;;;4972515;28;20077;-69
2021/05/30 04:35:47;;;;;;;7.40;3.70;;;10.50;99.90;;;;;;4985991;28;20039;-69
2021/05/30 04:38:12;;;;;;;9.13;3.50;;;10.60;99.90;;;;;;4983952;28;20034;-69
2021/05/30 04:40:38;;;;;;;7.72;3.60;;;10.70;99.90;;;;;;4971380;28;20042;-69
2021/05/30 04:43:04;;;;;;;9.23;3.38;;;10.70;99.90;;;;;;4971581;28;20027;-69
2021/05/30 04:45:30;;;;;;;9.95;3.22;;;10.70;99.90;;;;;;4971379;28;20051;-69
2021/05/30 04:47:55;;;;;;;6.55;3.10;;;10.70;99.90;;;;;;4969947;28;20465;-69
2021/05/30 04:50:21;;;;;;;8.90;3.50;;;10.70;99.90;;;;;;4969061;28;20027;-69
2021/05/30 04:52:46;;;;;;;8.10;3.35;;;10.70;99.90;;;;;;4970691;28;20039;-68
2021/05/30 04:55:12;;;;;;;8.55;4.03;;;10.60;99.90;;;;;;4986098;28;20142;-69
2021/05/30 04:57:39;;;;;;;10.32;3.70;;;10.60;99.90;;;;;;4970538;28;20039;-69
2021/05/30 05:00:07;;;;;;;10.63;4.30;;;10.60;99.90;;;;;;4971362;28;21222;-69
2021/05/30 05:02:33;;;;;;;9.38;3.03;;;10.50;99.90;;;;;;4971863;28;20054;-69
2021/05/30 05:04:59;;;;;;;7.55;3.90;;;10.50;99.90;;;;;;4970748;28;20484;-69
2021/05/30 05:07:25;;;;;;;6.88;3.38;;;10.50;99.90;;;;;;4970214;28;20141;-69
2021/05/30 05:09:50;;;;;;;8.00;3.90;;;10.50;99.90;;;;;;4969383;28;20039;-69
2021/05/30 05:12:16;;;;;;;8.88;3.75;;;10.50;99.90;;;;;;4966992;28;20114;-69
2021/05/30 05:14:41;;;;;;;11.02;4.25;;;10.70;99.90;;;;;;4970992;28;20139;-69
2021/05/30 05:17:07;;;;;;;8.30;3.92;;;10.70;99.90;;;;;;4970532;28;20054;-69
2021/05/30 05:19:33;;;;;;;9.32;3.90;;;10.70;99.90;;;;;;4970824;28;20041;-69
2021/05/30 05:21:58;;;;;;;8.43;3.40;;;10.80;99.90;;;;;;4970119;28;20468;-69
2021/05/30 05:24:24;;;;;;;12.65;3.53;;;10.80;99.90;;;;;;4971073;28;20034;-69
2021/05/30 05:26:49;;;;;;;10.50;4.10;;;10.90;99.90;;;;;;4970559;28;20049;-68
2021/05/30 05:29:15;;;;;;;6.18;3.05;;;10.90;99.90;;;;;;4966086;28;20101;-69
2021/05/30 05:31:40;;;;;;;7.90;3.60;;;11.10;99.90;;;;;;4970555;28;20130;-69
2021/05/30 05:34:06;;;;;;;7.18;3.78;;;11.40;99.90;;;;;;4970352;28;20073;-69
2021/05/30 05:36:31;;;;;;;8.32;4.22;;;11.50;99.90;;;;;;4966130;28;20035;-69
2021/05/30 05:38:57;;;;;;;13.98;4.43;;;11.80;99.90;;;;;;4966655;28;20475;-70
2021/05/30 05:41:23;;;;;;;10.68;3.38;;;12.10;99.90;;;;;;4970126;28;20050;-69
2021/05/30 05:43:48;;;;;;;8.77;3.80;;;12.40;99.90;;;;;;4970296;28;20053;-69
2021/05/30 05:46:14;;;;;;;11.52;4.05;;;12.70;99.90;;;;;;4967762;28;20185;-69
2021/05/30 05:48:40;;;;;;;8.02;3.53;;;13.00;99.90;;;;;;4968351;28;20049;-69
2021/05/30 05:51:05;;;;;;;11.35;4.07;;;13.10;99.90;;;;;;4967968;28;20543;-69
2021/05/30 05:53:31;;;;;;;14.13;4.88;;;13.40;99.90;;;;;;4970089;28;20035;-69
2021/05/30 05:55:57;;;;;;;10.93;3.72;;;13.40;99.90;;;;;;4970059;28;20069;-69
2021/05/30 05:58:23;;;;;;;9.38;3.25;;;13.70;99.90;;;;;;4964770;28;20042;-70
2021/05/30 06:00:49;;;;;;;8.60;3.28;;;13.90;99.90;;;;;;4971757;28;20031;-70
2021/05/30 06:03:14;;;;;;;7.32;3.47;;;14.10;99.90;;;;;;4968038;28;20027;-70
2021/05/30 06:05:40;;;;;;;7.85;3.42;;;14.50;99.90;;;;;;4967897;28;20034;-70
2021/05/30 06:08:06;;;;;;;10.23;3.53;;;14.70;99.90;;;;;;4967086;28;20110;-70
2021/05/30 06:10:32;;;;;;;8.48;2.88;;;14.90;99.90;;;;;;4968740;28;20062;-70
2021/05/30 06:12:59;;;;;;;7.60;3.30;;;15.60;99.90;;;;;;4969520;28;20117;-69
2021/05/30 06:15:26;;;;;;;13.20;3.92;;;16.30;99.90;;;;;;4983441;28;20042;-70
2021/05/30 06:18:03;;;;;;;6.60;3.08;;;16.80;99.90;;;;;;4967431;28;20045;-70
2021/05/30 06:20:28;;;;;;;5.93;2.83;;;17.70;99.90;;;;;;4969657;28;20462;-70
2021/05/30 06:22:55;;;;;;;5.45;3.00;;;18.70;99.90;;;;;;4969203;28;20040;-71
2021/05/30 06:25:21;;;;;;;10.18;2.50;;;19.70;97.60;;;;;;4970384;28;20035;-70
2021/05/30 06:27:47;;;;;;;9.85;2.72;;;20.50;94.50;;;;;;4969355;28;20047;-70
2021/05/30 06:30:13;;;;;;;4.70;2.40;;;21.30;87.90;;;;;;4970686;28;20053;-70
2021/05/30 06:32:39;;;;;;;8.35;2.90;;;22.20;82.60;;;;;;4969485;28;20394;-70
2021/05/30 06:35:05;;;;;;;5.60;3.10;;;23.40;73.50;;;;;;4970674;28;20097;-70
2021/05/30 06:37:30;;;;;;;8.15;2.90;;;23.70;69.10;;;;;;4967111;28;20669;-71
2021/05/30 06:39:56;;;;;;;9.88;3.28;;;24.00;64.50;;;;;;4969948;28;20050;-71
2021/05/30 06:42:22;;;;;;;5.70;3.08;;;24.30;64.10;;;;;;4968829;28;20035;-70
2021/05/30 06:44:47;;;;;;;7.05;3.10;;;24.60;62.20;;;;;;4968666;28;20035;-70
2021/05/30 06:47:13;;;;;;;7.22;3.80;;;25.10;59.80;;;;;;4955097;28;20552;-70
2021/05/30 06:49:39;;;;;;;6.47;3.50;;;25.40;57.10;;;;;;4956953;28;20035;-69
2021/05/30 06:52:04;;;;;;;6.28;3.92;;;25.70;56.90;;;;;;4960389;28;20045;-71
2021/05/30 06:54:30;;;;;;;6.68;3.72;;;26.20;56.30;;;;;;4964260;28;20050;-69
2021/05/30 06:56:56;;;;;;;9.27;4.57;;;26.40;54.20;;;;;;4967244;28;20142;-70
2021/05/30 06:59:21;;;;;;;6.78;3.50;;;27.00;52.10;;;;;;4968039;28;20123;-69
2021/05/30 07:01:47;;;;;;;5.65;3.58;;;26.90;54.00;;;;;;4976757;28;20063;-70
2021/05/30 07:04:12;;;;;;;6.00;3.17;;;26.70;53.20;;;;;;4967274;28;20471;-71
2021/05/30 07:06:38;;;;;;;8.35;3.72;;;27.10;51.90;;;;;;4968248;28;20490;-71
2021/05/30 07:09:06;;;;;;;9.00;4.00;;;27.00;51.60;;;;;;4967012;28;20045;-70
2021/05/30 07:11:33;;;;;;;7.53;4.00;;;26.90;50.90;;;;;;4968190;28;20117;-70
2021/05/30 07:13:59;;;;;;;11.30;4.32;;;27.10;51.90;;;;;;4967749;28;20027;-70
2021/05/30 07:16:24;;;;;;;9.55;4.60;;;27.50;49.90;;;;;;4967611;28;20968;-70
2021/05/30 07:18:50;;;;;;;8.07;4.28;;;27.50;52.10;;;;;;4966914;28;20376;-70
2021/05/30 07:21:15;;;;;;;8.98;4.72;;;27.20;51.60;;;;;;4967552;28;20033;-70
2021/05/30 07:23:42;;;;;;;9.07;4.68;;;26.80;50.60;;;;;;4967580;28;20027;-69
2021/05/30 07:26:08;;;;;;;8.10;4.30;;;27.70;50.50;;;;;;4967518;28;20035;-70
2021/05/30 07:28:34;;;;;;;7.72;4.10;;;27.60;49.80;;;;;;4967565;28;20566;-70
2021/05/30 07:30:59;;;;;;;9.43;4.55;;;28.00;49.20;;;;;;4967341;28;20042;-70
2021/05/30 07:33:25;;;;;;;8.75;4.88;;;27.90;49.40;;;;;;4967947;28;20027;-70
2021/05/30 07:35:51;;;;;;;8.43;4.50;;;28.20;48.20;;;;;;4967682;28;20026;-70
2021/05/30 07:38:16;;;;;;;8.60;4.80;;;27.60;49.30;;;;;;4966762;28;20468;-71
2021/05/30 07:40:42;;;;;;;7.65;4.57;;;28.30;48.80;;;;;;4968147;28;20085;-70
2021/05/30 07:43:08;;;;;;;10.82;4.38;;;28.40;48.30;;;;;;4967651;28;20507;-71
2021/05/30 07:45:34;;;;;;;7.35;4.18;;;28.00;47.80;;;;;;4970145;28;20049;-71
2021/05/30 07:48:00;;;;;;;7.00;4.15;;;27.60;48.80;;;;;;4963353;28;20035;-70
2021/05/30 07:50:26;;;;;;;10.85;4.60;;;27.70;48.80;;;;;;4970055;28;20030;-71
2021/05/30 07:52:52;;;;;;;10.23;5.40;;;28.30;49.00;;;;;;4968481;28;20046;-72
2021/05/30 07:55:20;;;;;;;9.50;4.53;;;27.80;48.80;;;;;;4966628;28;20027;-70
2021/05/30 07:57:46;;;;;;;9.75;4.80;;;28.20;48.60;;;;;;4966697;28;20023;-70
2021/05/30 08:00:16;;;;;;;8.98;4.93;;;28.50;48.60;;;;;;4964826;28;20477;-70
2021/05/30 08:02:43;;;;;;;8.27;4.68;;;28.70;48.00;;;;;;4965797;28;20820;-70
2021/05/30 08:05:11;;;;;;;7.53;4.40;;;28.90;46.50;;;;;;4967558;28;20035;-70
2021/05/30 08:07:37;;;;;;;8.77;4.55;;;28.60;47.20;;;;;;4958638;28;20027;-70
2021/05/30 08:10:05;;;;;;;8.50;4.90;;;28.70;47.30;;;;;;4967052;28;20034;-72
2021/05/30 08:12:30;;;;;;;8.50;4.50;;;28.30;47.50;;;;;;4968607;28;20043;-71
2021/05/30 08:14:56;;;;;;;6.65;4.10;;;28.20;47.70;;;;;;4967468;28;20044;-71
2021/05/30 08:17:22;;;;;;;7.20;4.07;;;28.90;47.00;;;;;;4965648;28;20034;-71
2021/05/30 08:19:47;;;;;;;6.95;4.50;;;29.10;46.90;;;;;;4965917;28;20090;-71
2021/05/30 08:22:13;;;;;;;6.95;4.47;;;29.10;46.20;;;;;;4968076;28;20039;-71
2021/05/30 08:24:38;;;;;;;12.73;4.90;;;28.90;46.60;;;;;;4967929;28;20055;-72
2021/05/30 08:27:05;;;;;;;8.60;4.43;;;28.60;47.00;;;;;;4965573;28;20403;-72
2021/05/30 08:29:30;;;;;;;7.45;4.32;;;28.50;48.10;;;;;;4965242;28;20055;-71
2021/05/30 08:31:56;;;;;;;8.55;4.10;;;28.30;48.60;;;;;;4967370;28;20058;-71
2021/05/30 08:34:22;;;;;;;11.35;4.72;;;28.40;48.10;;;;;;4967261;28;20049;-71
2021/05/30 08:36:48;;;;;;;7.05;4.55;;;28.40;47.30;;;;;;4962210;28;20043;-71
2021/05/30 08:39:14;;;;;;;10.07;4.70;;;28.10;47.40;;;;;;4965796;28;20047;-71
2021/05/30 08:41:41;;;;;;;6.32;4.07;;;27.60;47.80;;;;;;4965514;28;20501;-70
2021/05/30 08:44:08;;;;;;;9.10;4.45;;;27.10;48.90;;;;;;4966235;28;20027;-71
2021/05/30 08:46:33;;;;;;;6.65;3.78;;;27.10;48.70;;;;;;4965644;28;20043;-71
2021/05/30 08:49:01;;;;;;;6.93;3.78;;;27.30;48.70;;;;;;4966013;28;20434;-71
2021/05/30 08:51:27;;;;;;;6.45;3.38;;;26.60;49.10;;;;;;4965642;28;20034;-70
2021/05/30 08:53:52;;;;;;;5.15;3.30;;;26.30;52.10;;;;;;4967127;28;20046;-71
2021/05/30 08:56:19;;;;;;;9.65;3.80;;;26.10;50.40;;;;;;4966336;28;20031;-72
2021/05/30 08:58:49;;;;;;;4.70;3.17;;;25.80;50.80;;;;;;4966707;28;20039;-72
2021/05/30 09:01:17;;;;;;;8.68;3.20;;;25.80;51.30;;;;;;4966591;28;20030;-72
2021/05/30 09:04:07;;;;;;;5.35;2.85;;;25.30;51.20;;;;;;4967465;28;20177;-71
2021/05/30 09:06:34;;;;;;;4.22;2.72;;;24.90;52.80;;;;;;4962767;28;20492;-72
2021/05/30 09:09:01;;;;;;;7.93;3.38;;;24.70;55.40;;;;;;4967319;28;20169;-71
2021/05/30 09:11:41;;;;;;;4.63;2.78;;;24.20;54.00;;;;;;4970496;28;20039;-71
2021/05/30 09:14:19;;;;;;;10.18;3.30;;;24.30;54.20;;;;;;4967947;28;20636;-72
2021/05/30 09:16:48;;;;;;;5.22;2.90;;;24.20;54.30;;;;;;4970608;28;20051;-72
2021/05/30 09:19:37;;;;;;;6.57;2.72;;;24.00;56.80;;;;;;4970294;28;20073;-71
2021/05/30 09:22:26;;;;;;;7.20;3.13;;;24.00;56.00;;;;;;4967388;28;20035;-71
2021/05/30 09:24:51;;;;;;;8.27;3.13;;;23.80;56.10;;;;;;4956568;28;20043;-71
2021/05/30 09:27:18;;;;;;;7.32;3.17;;;23.80;58.30;;;;;;4970940;28;20382;-71
2021/05/30 09:29:44;;;;;;;6.05;3.40;;;23.70;56.30;;;;;;4969618;28;20050;-72
2021/05/30 09:32:09;;;;;;;7.13;3.30;;;24.00;55.80;;;;;;4970828;28;20102;-71
2021/05/30 09:34:37;;;;;;;7.03;3.75;;;24.00;55.50;;;;;;4970520;28;20073;-72
2021/05/30 09:37:04;;;;;;;7.32;3.40;;;24.10;54.40;;;;;;4966392;28;20444;-71
2021/05/30 09:39:41;;;;;;;8.75;3.75;;;23.90;55.30;;;;;;4969859;28;20045;-71
2021/05/30 09:42:33;;;;;;;5.95;3.08;;;23.70;54.80;;;;;;4966973;28;20057;-71
2021/05/30 09:45:05;;;;;;;6.30;3.78;;;23.30;57.00;;;;;;4968688;28;20035;-71
2021/05/30 09:47:32;;;;;;;6.60;3.30;;;23.30;57.00;;;;;;4981461;28;20046;-72
2021/05/30 09:49:58;;;;;;;6.03;3.10;;;23.50;58.70;;;;;;4969486;28;20066;-71
2021/05/30 09:52:49;;;;;;;8.63;4.03;;;23.50;57.90;;;;;;4969046;28;20070;-72
2021/05/30 09:55:23;;;;;;;7.10;3.80;;;23.80;56.00;;;;;;4967871;28;20505;-71
2021/05/30 09:58:16;;;;;;;8.23;3.78;;;23.80;55.60;;;;;;4984897;28;20101;-72
2021/05/30 10:00:58;;;;;;;7.15;4.18;;;23.40;56.60;;;;;;4966457;28;20034;-71
2021/05/30 10:03:25;;;;;;;6.68;3.85;;;23.60;56.40;;;;;;4970191;28;20491;-72
2021/05/30 10:05:50;;;;;;;6.03;3.85;;;23.30;59.20;;;;;;4970492;28;20034;-71
2021/05/30 10:08:17;;;;;;;9.77;3.97;;;23.60;58.00;;;;;;4970081;28;20080;-71
2021/05/30 10:10:44;;;;;;;12.73;3.97;;;23.40;56.40;;;;;;4969652;28;20480;-71
2021/05/30 10:13:10;;;;;;;5.60;3.33;;;23.50;52.70;;;;;;4970050;28;20034;-71
2021/05/30 10:15:37;;;;;;;9.45;4.28;;;23.40;53.80;;;;;;4969535;28;20403;-72
2021/05/30 10:18:26;;;;;;;8.75;4.82;;;23.30;55.50;;;;;;4969892;28;20034;-71
2021/05/30 10:20:53;;;;;;;10.90;3.78;;;23.10;55.70;;;;;;4967613;28;20035;-71
2021/05/30 10:23:21;;;;;;;9.65;3.28;;;23.00;55.10;;;;;;4982889;28;20035;-71
2021/05/30 10:25:47;;;;;;;9.93;4.38;;;23.10;56.40;;;;;;4968790;28;20027;-71
2021/05/30 10:28:19;;;;;;;7.03;3.70;;;23.00;59.10;;;;;;4969287;28;20034;-70
2021/05/30 10:30:46;;;;;;;5.85;3.58;;;23.10;55.20;;;;;;4968901;28;20058;-71
2021/05/30 10:33:26;;;;;;;9.65;3.72;;;23.20;54.20;;;;;;4969732;28;20046;-71
2021/05/30 10:35:54;;;;;;;8.30;3.17;;;23.10;55.40;;;;;;4969252;28;20329;-71
2021/05/30 10:38:37;;;;;;;6.13;3.25;;;23.10;54.20;;;;;;4965572;28;20038;-68
2021/05/30 10:41:17;;;;;;;6.50;3.28;;;23.10;57.70;;;;;;4981142;28;20415;-71
2021/05/30 10:43:44;;;;;;;7.00;4.13;;;23.10;56.40;;;;;;4969756;28;20089;-71
2021/05/30 10:46:10;;;;;;;8.50;4.03;;;23.00;56.60;;;;;;4969315;28;20486;-71
2021/05/30 10:48:37;;;;;;;8.13;3.22;;;23.00;58.30;;;;;;4975775;28;21137;-71
2021/05/30 10:53:49;;;;;;;5.95;3.58;;;23.10;57.40;;;;;;4969395;28;20061;-71
2021/05/30 10:56:35;;;;;;;5.93;3.47;;;23.20;55.70;;;;;;4968983;28;20105;-71
2021/05/30 10:59:03;;;;;;;7.85;3.40;;;23.20;56.00;;;;;;4964356;28;20038;-71
2021/05/30 11:01:39;;;;;;;5.72;3.03;;;23.20;57.30;;;;;;4965433;28;20042;-72
2021/05/30 11:04:23;;;;;;;7.28;3.45;;;23.40;53.30;;;;;;4980749;28;20043;-71
2021/05/30 11:06:49;;;;;;;5.38;2.80;;;23.40;54.50;;;;;;4967315;28;20047;-71
2021/05/30 11:09:15;;;;;;;5.03;2.63;;;23.30;53.10;;;;;;4968647;28;20097;-69
2021/05/30 11:11:41;;;;;;;5.30;2.13;;;23.20;49.70;;;;;;4984162;28;20035;-71
2021/05/30 11:14:12;;;;;;;4.63;2.03;;;23.20;49.90;;;;;;4968622;28;20530;-71
2021/05/30 11:16:46;;;;;;;8.02;2.60;;;22.80;49.80;;;;;;4968281;28;20038;-71
2021/05/30 11:19:16;;;;;;;4.07;2.00;;;22.80;54.40;;;;;;4967651;28;20050;-69
2021/05/30 11:21:44;;;;;;;;;;;22.80;53.80;;;;;;4968238;28;20110;-69
2021/05/30 11:24:16;;;;;;;5.00;2.63;;;22.90;52.40;;;;;;4967945;28;20290;-71
2021/05/30 11:27:00;;;;;;;6.82;2.45;;;22.90;53.50;;;;;;4967879;28;20503;-69
2021/05/30 11:29:28;;;;;;;4.32;2.58;;;23.00;54.60;;;;;;4967046;28;20047;-71
2021/05/30 11:31:53;;;;;;;4.90;1.88;;;23.20;51.60;;;;;;4967146;28;20060;-71
2021/05/30 11:34:20;;;;;;;9.75;1.83;;;23.20;49.90;;;;;;4967605;28;20043;-71
2021/05/30 11:36:47;;;;;;;2.78;2.00;;;23.10;49.40;;;;;;4966211;28;20034;-71
2021/05/30 11:39:14;;;;;;;4.50;1.90;;;23.20;50.90;;;;;;4967068;28;20027;-71
2021/05/30 11:41:52;;;;;;;3.70;2.03;;;23.20;53.20;;;;;;4968634;28;20042;-70
2021/05/30 11:44:20;;;;;;;4.10;1.58;;;23.30;50.00;;;;;;4968131;28;20035;-70
2021/05/30 11:47:08;;;;;;;5.03;1.35;;;23.20;50.70;;;;;;4968083;28;20057;-70
2021/05/30 11:49:36;;;;;;;2.75;1.80;;;23.20;49.00;;;;;;4964564;28;20042;-71
2021/05/30 11:52:14;;;;;;;3.13;1.40;;;23.20;51.60;;;;;;4966243;28;20118;-71
2021/05/30 11:54:42;;;;;;;5.72;1.92;;;23.20;49.60;;;;;;4960403;28;20545;-71
2021/05/30 11:57:11;;;;;;;4.00;1.55;;;23.30;49.10;;;;;;4962190;28;20168;-70
2021/05/30 11:59:44;;;;;;;3.60;1.40;;;23.10;48.40;;;;;;4967923;28;20035;-71
2021/05/30 12:02:30;;;;;;;2.53;1.25;;;23.00;48.30;;;;;;4982473;28;20550;-71
2021/05/30 12:04:59;;;;;;;5.90;1.13;;;23.10;49.00;;;;;;4963422;28;20027;-69
2021/05/30 12:07:26;;;;;;;2.08;1.20;;;23.10;49.10;;;;;;4962979;28;20053;-69
2021/05/30 12:09:54;;;;;;;2.25;0.98;;;23.10;48.90;;;;;;4964221;28;20053;-70
2021/05/30 12:12:47;;;;;;;1.85;0.85;;;23.10;47.90;;;;;;4961421;28;20035;-71
2021/05/30 12:15:18;;;;;;;2.72;0.90;;;23.10;49.70;;;;;;4970099;28;20503;-71
2021/05/30 12:18:04;;;;;;;3.20;1.10;;;23.10;48.10;;;;;;4966791;28;20038;-71
2021/05/30 12:20:35;;;;;;;2.88;0.93;;;23.20;50.20;;;;;;4969213;28;20039;-71
2021/05/30 12:23:09;;;;;;;2.85;0.88;;;23.20;49.90;;;;;;4968458;28;20047;-68
2021/05/30 12:25:34;;;;;;;1.80;0.90;;;23.20;46.10;;;;;;4962953;28;20070;-71
2021/05/30 12:28:00;;;;;;;2.50;1.08;;;23.00;44.90;;;;;;4963739;28;20466;-69
2021/05/30 12:30:26;;;;;;;1.40;0.98;;;22.80;47.10;;;;;;4965106;28;20401;-70
2021/05/30 12:32:52;;;;;;;2.72;1.10;;;22.70;48.40;;;;;;4967912;28;20510;-71
2021/05/30 12:35:43;;;;;;;1.95;0.90;;;22.70;48.30;;;;;;4966068;28;20364;-71
2021/05/30 12:38:15;;;;;;;3.38;1.45;;;22.70;48.40;;;;;;4964022;28;20030;-70
2021/05/30 12:40:43;;;;;;;7.53;2.80;;;22.70;49.40;;;;;;4964879;28;20070;-71
2021/05/30 12:43:09;;;;;;;11.10;3.33;;;22.80;58.80;;;;;;4979617;28;20027;-71
2021/05/30 12:45:36;;;;;;;10.05;2.90;;;22.60;58.50;;;;;;4967954;28;20406;-70
2021/05/30 12:48:02;;;;;;;5.60;2.88;;;22.60;58.30;;;;;;4975507;28;20394;-75
2021/05/30 12:50:40;;;;;;;8.15;3.00;;;22.50;59.70;;;;;;4969192;28;20138;-72
2021/05/30 12:53:07;;;;;;;4.72;2.60;;;22.50;59.60;;;;;;4968621;28;20042;-71